• Join FlightAware (Why Join?)
  • Login
  • US Flag 
06:33PM EDT


 

Airport Tracker/Info


-or-


 

Live Flight TrackerFlight Track Log ✈ SWA542 ✈ 21-Apr-2013 ✈ KSAT - KLAS

Flight Track Log - Related Links

Times and Time Zones

All times are in EDT time to prevent confusion due to time zone crossing. See the SWA542 flight status page for this flight to view local times or setup timezone preferences in your user account.

Time Position Orientation Groundspeed Altitude Reporting Facility
EDT Latitude Longitude Course Direction KTS MPH feet Rate Location/Type
02:53PM 29.5078 -98.4392 131° Southeast 159 183 2,500  Level Houston Center
02:54PM 29.4608 -98.4456 187° South 219 252 4,200 2,280 Climbing Houston Center
02:55PM 29.4503 -98.5153 260° West 271 312 6,900 2,880 Climbing Houston Center
02:56PM 29.5269 -98.5667 330° Northwest 298 343 10,200 2,700 Climbing Houston Center
02:57PM 29.6119 -98.6225 330° Northwest 355 409 12,500 2,700 Climbing Houston Center
02:58PM 29.6994 -98.6797 330° Northwest 361 415 15,800 2,700 Climbing Houston Center
02:59PM 29.7947 -98.7419 330° Northwest 365 420 18,200 2,340 Climbing Houston Center
03:00PM 29.8839 -98.8036 329° Northwest 373 429 20,700 2,400 Climbing Houston Center
03:01PM 29.9586 -98.9050 310° West 387 445 23,200 2,220 Climbing Houston Center
03:02PM 30.0264 -99.0003 309° West 388 447 25,300 1,740 Climbing Houston Center
03:03PM 30.0886 -99.0942 307° West 393 452 26,900 1,500 Climbing Houston Center
03:04PM 30.1189 -99.2181 286° West 397 457 28,400 1,680 Climbing Houston Center
03:05PM 30.1511 -99.3408 287° West 400 460 30,400 1,860 Climbing Houston Center
03:06PM 30.1872 -99.4903 286° West 402 463 32,300 1,800 Climbing Houston Center
03:07PM 30.2158 -99.6111 285° West 394 453 34,200 1,860 Climbing Houston Center
03:08PM 30.2433 -99.7278 285° West 381 438 36,200 1,560 Climbing Houston Center
03:09PM 30.2692 -99.8392 285° West 364 419 37,500 840 Climbing Houston Center
03:10PM 30.2947 -99.9511 285° West 363 418 38,000 240 Climbing Houston Center
03:11PM 30.3250 -100.0825 285° West 352 405 38,000  Level Houston Center
03:12PM 30.3503 -100.1942 285° West 360 414 38,000  Level Houston Center
03:13PM 30.3761 -100.3047 285° West 360 414 38,000  Level Houston Center
03:14PM 30.4011 -100.4150 285° West 358 412 38,000  Level Houston Center
03:15PM 30.4306 -100.5467 285° West 355 409 38,000  Level Houston Center
03:16PM 30.4547 -100.6592 284° West 360 414 38,000  Level Houston Center
03:17PM 30.4808 -100.7703 285° West 359 413 38,000  Level Houston Center
03:19PM 30.5036 -100.8817 283° West 357 411 38,000  Level Houston Center
03:20PM 30.5283 -100.9944 284° West 361 415 38,000  Level Houston Center
03:21PM 30.5525 -101.1069 284° West 362 417 38,000  Level Houston Center
03:22PM 30.5831 -101.2400 285° West 357 411 38,000  Level Houston Center
03:23PM 30.6081 -101.3533 284° West 361 415 38,000  Level Houston Center
03:24PM 30.6311 -101.4669 283° West 362 417 38,000  Level Houston Center
03:25PM 30.6567 -101.5806 285° West 364 419 38,000  Level Houston Center
03:26PM 30.6869 -101.7125 285° West 364 419 38,000  Level Houston Center
03:27PM 30.7100 -101.8275 283° West 364 419 38,000  Level Houston Center
03:28PM 30.7411 -101.9644 285° West 369 425 38,000  Level Albuquerque Center
03:29PM 30.7653 -102.0803 284° West 370 426 38,000  Level Albuquerque Center
03:30PM 30.7897 -102.1961 284° West 369 425 38,000  Level Albuquerque Center
03:31PM 30.8144 -102.3131 284° West 370 426 38,000  Level Albuquerque Center
03:32PM 30.8381 -102.4289 283° West 368 423 38,000  Level Albuquerque Center
03:33PM 30.8625 -102.5444 284° West 367 422 38,000  Level Albuquerque Center
03:34PM 30.8906 -102.6842 283° West 368 423 38,000  Level Albuquerque Center
03:35PM 30.9153 -102.7997 284° West 367 422 38,000  Level Albuquerque Center
03:36PM 30.9389 -102.9153 283° West 367 422 38,000  Level Albuquerque Center
03:37PM 30.9644 -103.0306 285° West 366 421 38,000  Level Albuquerque Center
03:38PM 30.9969 -103.1428 289° West 365 420 38,000  Level Albuquerque Center
03:39PM 31.0286 -103.2569 288° West 369 425 38,000  Level Albuquerque Center
03:40PM 31.0594 -103.3708 288° West 370 426 38,000  Level Albuquerque Center
03:41PM 31.0972 -103.5083 288° West 370 426 38,000  Level Albuquerque Center
03:42PM 31.1272 -103.6208 287° West 366 421 38,000  Level Albuquerque Center
03:43PM 31.1572 -103.7347 287° West 367 422 38,000  Level Albuquerque Center
03:45PM 31.1858 -103.8394 288° West 367 422 38,000  Level Albuquerque Center
03:46PM 31.2225 -103.9769 287° West 371 427 38,000  Level Albuquerque Center
03:47PM 31.2531 -104.0933 287° West 375 432 38,000  Level Albuquerque Center
03:48PM 31.2853 -104.2097 288° West 378 435 38,000  Level Albuquerque Center
03:49PM 31.3169 -104.3272 288° West 380 437 38,000  Level Albuquerque Center
03:50PM 31.3478 -104.4439 287° West 379 436 38,000  Level Albuquerque Center
03:51PM 31.3836 -104.5844 287° West 378 435 38,000  Level Albuquerque Center
03:52PM 31.4150 -104.7017 287° West 380 437 38,000  Level Albuquerque Center
03:53PM 31.4464 -104.8197 287° West 382 440 38,000  Level Albuquerque Center
03:54PM 31.4767 -104.9361 287° West 379 436 38,000  Level Albuquerque Center
03:55PM 31.5061 -105.0533 286° West 378 435 38,000  Level Albuquerque Center
03:56PM 31.5439 -105.1950 287° West 381 438 38,000  Level Albuquerque Center
03:57PM 31.5731 -105.3117 286° West 377 434 38,000  Level Albuquerque Center
03:58PM 31.6025 -105.4317 286° West 382 440 38,000  Level Albuquerque Center
03:59PM 31.6322 -105.5483 287° West 376 433 38,000  Level Albuquerque Center
04:00PM 31.6617 -105.6642 287° West 374 430 38,000  Level Albuquerque Center
04:01PM 31.6906 -105.7811 286° West 374 430 38,000  Level Albuquerque Center
04:02PM 31.7258 -105.9222 286° West 376 433 38,000  Level Albuquerque Center
04:03PM 31.7553 -106.0394 286° West 377 434 38,000  Level Albuquerque Center
04:04PM 31.7853 -106.1578 287° West 379 436 38,000  Level Albuquerque Center
04:05PM 31.8169 -106.2778 287° West 382 440 38,000  Level Albuquerque Center
04:06PM 31.8867 -106.3781 309° West 393 452 38,000  Level Albuquerque Center
04:07PM 31.9625 -106.4753 313° West 400 460 38,000  Level Albuquerque Center
04:08PM 32.0517 -106.5897 313° West 397 457 38,000  Level Albuquerque Center
04:09PM 32.1247 -106.6856 312° West 394 453 38,000  Level Albuquerque Center
04:10PM 32.1972 -106.7822 312° West 393 452 38,000  Level Albuquerque Center
04:11PM 32.2808 -106.8925 312° West 395 455 38,000  Level Albuquerque Center
04:12PM 32.3542 -106.9917 311° West 398 458 38,000  Level Albuquerque Center
04:13PM 32.4347 -107.0958 313° West 398 458 38,000  Level Albuquerque Center
04:14PM 32.5078 -107.1978 310° West 400 460 38,000  Level Albuquerque Center
04:16PM 32.5797 -107.2953 311° West 398 458 38,000  Level Albuquerque Center
04:17PM 32.6528 -107.3931 312° West 399 459 38,000  Level Albuquerque Center
04:18PM 32.7308 -107.5014 311° West 399 459 38,000  Level Albuquerque Center
04:19PM 32.8042 -107.6000 312° West 399 459 38,000  Level Albuquerque Center
04:20PM 32.8783 -107.7000 311° West 403 464 38,000  Level Albuquerque Center
04:21PM 32.9514 -107.7989 311° West 401 461 38,000  Level Albuquerque Center
04:22PM 33.0233 -107.8983 311° West 398 458 38,000  Level Albuquerque Center
04:23PM 33.1106 -108.0158 312° West 396 456 38,000  Level Albuquerque Center
04:24PM 33.1833 -108.1147 311° West 395 455 38,000  Level Albuquerque Center
04:25PM 33.2578 -108.2169 311° West 394 453 38,000  Level Albuquerque Center
04:26PM 33.3289 -108.3147 311° West 395 455 38,000  Level Albuquerque Center
04:27PM 33.4008 -108.4139 311° West 398 458 38,000  Level Albuquerque Center
04:28PM 33.4725 -108.5122 311° West 398 458 38,000  Level Albuquerque Center
04:29PM 33.5567 -108.6303 311° West 397 457 38,000  Level Albuquerque Center
04:30PM 33.6283 -108.7297 311° West 397 457 38,000  Level Albuquerque Center
04:31PM 33.6997 -108.8306 310° West 400 460 38,000  Level Albuquerque Center
04:32PM 33.7717 -108.9331 310° West 404 465 38,000  Level Albuquerque Center
04:33PM 33.8589 -109.0556 311° West 406 467 38,000  Level Albuquerque Center
04:34PM 33.9300 -109.1564 310° West 402 463 38,000  Level Albuquerque Center
04:35PM 34.0011 -109.2547 311° West 397 457 38,000  Level Albuquerque Center
04:36PM 34.0711 -109.3561 310° West 397 457 38,000  Level Albuquerque Center
04:37PM 34.1464 -109.4617 311° West 396 456 38,000  Level Albuquerque Center
04:38PM 34.2264 -109.5772 310° West 399 459 38,000  Level Albuquerque Center
04:39PM 34.2964 -109.6778 310° West 403 464 38,000  Level Albuquerque Center
04:40PM 34.3758 -109.7919 310° West 399 459 38,000  Level Albuquerque Center
04:41PM 34.4456 -109.8925 310° West 403 464 38,000  Level Albuquerque Center
04:42PM 34.5272 -110.0089 310° West 405 466 38,000  Level Albuquerque Center
04:43PM 34.5967 -110.1122 309° West 408 470 38,000  Level Albuquerque Center
04:44PM 34.6817 -110.2342 310° West 417 480 38,000  Level Albuquerque Center
04:46PM 34.7514 -110.3367 310° West 415 478 38,000  Level Albuquerque Center
04:47PM 34.8322 -110.4547 310° West 410 472 38,000  Level Albuquerque Center
04:48PM 34.8994 -110.5544 309° West 403 464 38,000  Level Albuquerque Center
04:49PM 34.9658 -110.6533 309° West 399 459 38,000 -300 Level Albuquerque Center
04:50PM 35.0411 -110.7775 307° West 407 468 37,400 -720 Descending Albuquerque Center
04:51PM 35.0703 -110.8936 287° West 402 463 36,500 -1,440 Descending Albuquerque Center
04:52PM 35.1019 -111.0378 285° West 394 453 34,500 -1,560 Descending Albuquerque Center
04:53PM 35.1317 -111.1678 286° West 421 484 33,300 -1,020 Descending Albuquerque Center
04:54PM 35.1606 -111.3011 285° West 413 475 32,400 -960 Descending Albuquerque Center
04:55PM 35.1897 -111.4369 285° West 414 476 31,400 -1,020 Descending Albuquerque Center
04:56PM 35.2244 -111.6011 285° West 417 480 30,300 -720 Descending Albuquerque Center
04:57PM 35.2539 -111.7378 285° West 418 481 30,000 -180 Descending Albuquerque Center
04:58PM 35.2814 -111.8697 284° West 414 476 30,000  Level Albuquerque Center
04:59PM 35.3103 -112.0053 285° West 415 478 30,000  Level Albuquerque Center
05:00PM 35.3453 -112.1697 285° West 417 480 30,000  Level Albuquerque Center
05:01PM 35.3744 -112.3081 285° West 420 483 30,000  Level Albuquerque Center
05:02PM 35.3911 -112.3911 284° West 421 484 30,000  Level Los Angeles Center
05:03PM 35.4203 -112.5300 284° West 424 488 30,000  Level Los Angeles Center
05:04PM 35.4503 -112.6725 285° West 422 486 30,000 -540 Level Los Angeles Center
05:05PM 35.4775 -112.8078 284° West 411 473 28,900 -1,020 Descending Los Angeles Center
05:06PM 35.5086 -112.9603 284° West 388 447 28,000 -480 Descending Los Angeles Center
05:07PM 35.5339 -113.0906 283° West 378 435 28,000  Level Los Angeles Center
05:08PM 35.5589 -113.2161 284° West 377 434 28,000  Level Los Angeles Center
05:09PM 35.5856 -113.3467 284° West 382 440 28,000 -720 Level Los Angeles Center
05:10PM 35.6106 -113.4708 284° West 377 434 26,600 -1,740 Descending Los Angeles Center
05:11PM 35.6322 -113.5903 283° West 365 420 24,500 -2,040 Descending Los Angeles Center
05:12PM 35.6489 -113.7147 279° West 367 422 22,400 -2,280 Descending Los Angeles Center
05:13PM 35.6700 -113.8597 280° West 365 420 19,900 -2,100 Descending Los Angeles Center
05:14PM 35.6861 -113.9756 280° West 351 404 18,100 -1,800 Descending Los Angeles Center
05:15PM 35.7008 -114.0864 279° West 337 388 16,200 -1,920 Descending Los Angeles Center
05:16PM 35.7192 -114.2033 281° West 345 397 14,200 -2,040 Descending Los Angeles Center
05:17PM 35.7322 -114.2997 280° West 338 389 12,500 -1,800 Descending Los Angeles Center
05:17PM 35.7325 -114.3100 272° West 331 381 12,300 -540 Descending Los Angeles Center
05:18PM 35.7642 -114.3928 295° West 311 358 12,000 -300 Descending Los Angeles Center
05:18PM 35.7700 -114.3969 330° Northwest 314 361 12,000 -180 Level Los Angeles Center
05:19PM 35.8464 -114.4311 340° North 294 338 11,800 -480 Descending Los Angeles Center
05:20PM 35.9200 -114.4514 347° North 254 292 11,200 -840 Descending Los Angeles Center
05:21PM 35.9886 -114.4575 356° North 243 280 10,100 -1,140 Descending Los Angeles Center
05:22PM 36.0528 -114.4731 349° North 246 283 8,900 -1,140 Descending Los Angeles Center
05:22PM 36.0556 -114.4828 289° West 247 284 8,700 -1,020 Descending Los Angeles Center
05:23PM 36.0736 -114.5381 292° West 223 257 8,000 -720 Descending Los Angeles Center
05:23PM 36.0775 -114.5525 288° West 222 255 8,000  Level Los Angeles Center
05:24PM 36.0750 -114.6122 267° West 221 254 8,000  Level Los Angeles Center
05:24PM 36.0747 -114.6303 269° West 218 251 8,000  Level Los Angeles Center
05:25PM 36.0736 -114.6844 269° West 225 259 8,000  Level Los Angeles Center
05:25PM 36.0739 -114.7225 271° West 223 257 8,000 -360 Level Los Angeles Center
05:26PM 36.0739 -114.7536 270° West 220 253 7,700 -1,080 Descending Los Angeles Center
05:26PM 36.0739 -114.7978 270° West 221 254 6,900 -1,140 Descending Los Angeles Center
05:27PM 36.0728 -114.8367 268° West 224 258 6,500 -540 Descending Los Angeles Center
05:28PM 36.0744 -114.8758 273° West 223 257 6,400 -900 Descending Los Angeles Center
05:28PM 36.0742 -114.9214 270° West 227 261 5,600 -1,080 Descending Los Angeles Center
05:29PM 36.0739 -114.9556 269° West 227 261 5,300 -1,140 Descending Los Angeles Center
05:29PM 36.0742 -114.9906 271° West 220 253 4,600 -1,260 Descending Los Angeles Center
05:30PM 36.0744 -115.0275 271° West 222 255 4,000 -1,500 Descending Los Angeles Center
05:30PM 36.0736 -115.0572 268° West 190 219 3,100 -1,320 Descending Los Angeles Center
05:31PM 36.0744 -115.0889 272° West 202 232 2,700 -840 Descending Los Angeles Center
05:31PM 36.0739 -115.1183 269° West 170 196 2,200 -600 Descending Los Angeles Center
05:32PM 36.0744 -115.1497 271° West 171 197 2,100 -180 Descending Los Angeles Center